sensor_id;sensor_type;location;lat;lon;timestamp;pressure;altitude;pressure_sealevel;temperature;humidity
20620;BME280;10469;42.720;23.252;2023-02-22T00:00:44;94856.00;;;8.54;83.84
20620;BME280;10469;42.720;23.252;2023-02-22T00:03:19;94850.81;;;8.41;84.86
20620;BME280;10469;42.720;23.252;2023-02-22T00:05:54;94850.59;;;8.42;84.74
20620;BME280;10469;42.720;23.252;2023-02-22T00:08:24;94848.38;;;8.39;85.16
20620;BME280;10469;42.720;23.252;2023-02-22T00:10:49;94848.88;;;8.29;86.10
20620;BME280;10469;42.720;23.252;2023-02-22T00:13:17;94849.69;;;8.30;86.00
20620;BME280;10469;42.720;23.252;2023-02-22T00:15:43;94849.19;;;8.40;86.03
20620;BME280;10469;42.720;23.252;2023-02-22T00:18:11;94843.16;;;8.44;85.45
20620;BME280;10469;42.720;23.252;2023-02-22T00:20:38;94835.38;;;8.43;85.31
20620;BME280;10469;42.720;23.252;2023-02-22T00:23:05;94838.63;;;8.45;84.41
20620;BME280;10469;42.720;23.252;2023-02-22T00:25:34;94838.88;;;8.43;84.29
20620;BME280;10469;42.720;23.252;2023-02-22T00:28:01;94843.66;;;8.53;83.66
20620;BME280;10469;42.720;23.252;2023-02-22T00:30:28;94835.09;;;8.51;83.68
20620;BME280;10469;42.720;23.252;2023-02-22T00:32:56;94809.22;;;8.45;83.05
20620;BME280;10469;42.720;23.252;2023-02-22T00:35:24;94829.56;;;8.64;83.02
20620;BME280;10469;42.720;23.252;2023-02-22T00:37:52;94830.50;;;8.70;83.81
20620;BME280;10469;42.720;23.252;2023-02-22T00:40:21;94812.03;;;8.68;82.87
20620;BME280;10469;42.720;23.252;2023-02-22T00:42:47;94832.13;;;8.71;82.81
20620;BME280;10469;42.720;23.252;2023-02-22T00:45:15;94816.19;;;8.64;84.11
20620;BME280;10469;42.720;23.252;2023-02-22T00:47:41;94816.88;;;8.60;83.55
20620;BME280;10469;42.720;23.252;2023-02-22T00:50:07;94817.38;;;8.50;84.65
20620;BME280;10469;42.720;23.252;2023-02-22T00:52:34;94814.50;;;8.51;84.04
20620;BME280;10469;42.720;23.252;2023-02-22T00:55:00;94816.69;;;8.43;85.11
20620;BME280;10469;42.720;23.252;2023-02-22T00:57:26;94818.41;;;7.94;88.39
20620;BME280;10469;42.720;23.252;2023-02-22T00:59:52;94820.22;;;8.18;87.60
20620;BME280;10469;42.720;23.252;2023-02-22T01:02:17;94819.03;;;8.14;87.93
20620;BME280;10469;42.720;23.252;2023-02-22T01:04:42;94815.00;;;7.87;89.33
20620;BME280;10469;42.720;23.252;2023-02-22T01:07:08;94827.31;;;7.88;90.46
20620;BME280;10469;42.720;23.252;2023-02-22T01:09:33;94813.34;;;7.86;89.89
20620;BME280;10469;42.720;23.252;2023-02-22T01:11:59;94814.41;;;7.85;90.02
20620;BME280;10469;42.720;23.252;2023-02-22T01:14:26;94818.25;;;7.89;90.64
20620;BME280;10469;42.720;23.252;2023-02-22T01:16:55;94792.91;;;7.79;90.21
20620;BME280;10469;42.720;23.252;2023-02-22T01:19:21;94792.09;;;7.97;91.25
20620;BME280;10469;42.720;23.252;2023-02-22T01:21:48;94810.44;;;8.12;89.80
20620;BME280;10469;42.720;23.252;2023-02-22T01:24:14;94801.13;;;7.96;88.97
20620;BME280;10469;42.720;23.252;2023-02-22T01:26:48;94810.50;;;8.05;88.91
20620;BME280;10469;42.720;23.252;2023-02-22T01:29:16;94802.84;;;8.09;88.45
20620;BME280;10469;42.720;23.252;2023-02-22T01:31:43;94815.44;;;8.02;89.33
20620;BME280;10469;42.720;23.252;2023-02-22T01:34:15;94807.72;;;7.94;90.58
20620;BME280;10469;42.720;23.252;2023-02-22T01:36:41;94808.91;;;7.98;90.45
20620;BME280;10469;42.720;23.252;2023-02-22T01:39:07;94806.53;;;7.71;91.74
20620;BME280;10469;42.720;23.252;2023-02-22T01:41:35;94808.75;;;7.74;92.27
20620;BME280;10469;42.720;23.252;2023-02-22T01:44:36;94809.56;;;7.57;93.86
20620;BME280;10469;42.720;23.252;2023-02-22T01:47:04;94810.44;;;7.25;96.67
20620;BME280;10469;42.720;23.252;2023-02-22T01:49:40;94813.69;;;7.27;97.21
20620;BME280;10469;42.720;23.252;2023-02-22T01:52:09;94802.59;;;7.31;96.86
20620;BME280;10469;42.720;23.252;2023-02-22T01:54:42;94808.94;;;7.29;95.74
20620;BME280;10469;42.720;23.252;2023-02-22T01:57:27;94816.13;;;7.54;94.72
20620;BME280;10469;42.720;23.252;2023-02-22T01:59:58;94811.69;;;7.48;94.51
20620;BME280;10469;42.720;23.252;2023-02-22T02:02:26;94797.41;;;7.36;95.48
20620;BME280;10469;42.720;23.252;2023-02-22T02:04:55;94799.03;;;7.37;95.86
20620;BME280;10469;42.720;23.252;2023-02-22T02:07:22;94815.78;;;7.25;96.88
20620;BME280;10469;42.720;23.252;2023-02-22T02:09:58;94809.03;;;7.16;97.29
20620;BME280;10469;42.720;23.252;2023-02-22T02:12:25;94805.13;;;7.19;97.66
20620;BME280;10469;42.720;23.252;2023-02-22T02:14:52;94803.38;;;7.06;98.31
20620;BME280;10469;42.720;23.252;2023-02-22T02:17:20;94813.00;;;7.07;98.22
20620;BME280;10469;42.720;23.252;2023-02-22T02:20:07;94810.34;;;7.07;98.18
20620;BME280;10469;42.720;23.252;2023-02-22T02:22:51;94817.75;;;7.05;97.72
20620;BME280;10469;42.720;23.252;2023-02-22T02:37:10;94829.50;;;6.97;97.94
20620;BME280;10469;42.720;23.252;2023-02-22T02:39:58;94830.13;;;6.99;98.17
20620;BME280;10469;42.720;23.252;2023-02-22T02:42:33;94814.41;;;6.85;98.74
20620;BME280;10469;42.720;23.252;2023-02-22T02:45:07;94821.53;;;6.91;98.68
20620;BME280;10469;42.720;23.252;2023-02-22T02:47:39;94825.41;;;6.95;99.10
20620;BME280;10469;42.720;23.252;2023-02-22T02:50:23;94808.97;;;6.98;100.00
20620;BME280;10469;42.720;23.252;2023-02-22T02:52:53;94826.81;;;7.04;100.00
20620;BME280;10469;42.720;23.252;2023-02-22T02:55:21;94824.56;;;7.01;100.00
20620;BME280;10469;42.720;23.252;2023-02-22T02:57:47;94827.56;;;7.11;100.00
20620;BME280;10469;42.720;23.252;2023-02-22T03:00:17;94819.78;;;7.10;100.00
20620;BME280;10469;42.720;23.252;2023-02-22T03:08:42;94834.25;;;6.95;100.00
20620;BME280;10469;42.720;23.252;2023-02-22T03:11:16;94828.00;;;7.08;100.00
20620;BME280;10469;42.720;23.252;2023-02-22T03:14:14;94822.06;;;7.06;100.00
20620;BME280;10469;42.720;23.252;2023-02-22T03:27:39;94828.25;;;7.00;100.00
20620;BME280;10469;42.720;23.252;2023-02-22T03:30:12;94831.34;;;6.97;100.00
20620;BME280;10469;42.720;23.252;2023-02-22T03:32:43;94825.13;;;7.03;100.00
20620;BME280;10469;42.720;23.252;2023-02-22T03:35:20;94830.78;;;6.88;100.00
20620;BME280;10469;42.720;23.252;2023-02-22T03:37:50;94836.69;;;6.97;100.00
20620;BME280;10469;42.720;23.252;2023-02-22T03:40:22;94830.97;;;6.93;100.00
20620;BME280;10469;42.720;23.252;2023-02-22T03:43:04;94834.50;;;6.81;100.00
20620;BME280;10469;42.720;23.252;2023-02-22T03:45:32;94823.94;;;6.67;100.00
20620;BME280;10469;42.720;23.252;2023-02-22T03:50:39;94839.00;;;6.87;100.00
20620;BME280;10469;42.720;23.252;2023-02-22T03:53:05;94821.03;;;6.75;100.00
20620;BME280;10469;42.720;23.252;2023-02-22T03:55:32;94843.19;;;6.69;100.00
20620;BME280;10469;42.720;23.252;2023-02-22T03:57:59;94821.75;;;6.51;100.00
20620;BME280;10469;42.720;23.252;2023-02-22T04:00:30;94835.06;;;6.51;100.00
20620;BME280;10469;42.720;23.252;2023-02-22T04:02:56;94835.28;;;6.49;100.00
20620;BME280;10469;42.720;23.252;2023-02-22T04:05:22;94831.59;;;6.50;100.00
20620;BME280;10469;42.720;23.252;2023-02-22T04:07:50;94832.72;;;6.29;100.00
20620;BME280;10469;42.720;23.252;2023-02-22T04:10:16;94830.22;;;6.35;100.00
20620;BME280;10469;42.720;23.252;2023-02-22T04:12:41;94837.44;;;6.27;100.00
20620;BME280;10469;42.720;23.252;2023-02-22T04:15:10;94832.72;;;6.29;100.00
20620;BME280;10469;42.720;23.252;2023-02-22T04:17:36;94837.63;;;6.26;100.00
20620;BME280;10469;42.720;23.252;2023-02-22T04:20:02;94834.66;;;5.89;100.00
20620;BME280;10469;42.720;23.252;2023-02-22T04:22:28;94841.41;;;5.78;100.00
20620;BME280;10469;42.720;23.252;2023-02-22T04:24:53;94848.81;;;5.57;100.00
20620;BME280;10469;42.720;23.252;2023-02-22T04:27:19;94849.22;;;5.60;100.00
20620;BME280;10469;42.720;23.252;2023-02-22T04:29:44;94848.00;;;5.63;100.00
20620;BME280;10469;42.720;23.252;2023-02-22T04:32:10;94850.06;;;5.41;100.00
20620;BME280;10469;42.720;23.252;2023-02-22T04:34:35;94846.81;;;5.32;100.00
20620;BME280;10469;42.720;23.252;2023-02-22T04:37:01;94846.16;;;5.17;100.00
20620;BME280;10469;42.720;23.252;2023-02-22T04:39:26;94840.66;;;5.12;100.00
20620;BME280;10469;42.720;23.252;2023-02-22T04:41:51;94824.69;;;4.98;100.00
20620;BME280;10469;42.720;23.252;2023-02-22T04:44:17;94836.16;;;5.06;100.00
20620;BME280;10469;42.720;23.252;2023-02-22T04:46:42;94841.44;;;4.86;100.00
20620;BME280;10469;42.720;23.252;2023-02-22T04:49:08;94848.59;;;4.92;100.00
20620;BME280;10469;42.720;23.252;2023-02-22T04:51:33;94836.13;;;4.99;100.00
20620;BME280;10469;42.720;23.252;2023-02-22T04:54:01;94844.88;;;4.73;100.00
20620;BME280;10469;42.720;23.252;2023-02-22T04:56:26;94840.91;;;4.49;100.00
20620;BME280;10469;42.720;23.252;2023-02-22T04:58:52;94844.84;;;4.60;100.00
20620;BME280;10469;42.720;23.252;2023-02-22T05:01:18;94834.63;;;4.57;100.00
20620;BME280;10469;42.720;23.252;2023-02-22T05:03:43;94846.69;;;4.59;100.00
20620;BME280;10469;42.720;23.252;2023-02-22T05:06:08;94851.09;;;4.39;100.00
20620;BME280;10469;42.720;23.252;2023-02-22T05:08:36;94850.69;;;4.28;100.00
20620;BME280;10469;42.720;23.252;2023-02-22T05:11:02;94855.81;;;4.37;100.00
20620;BME280;10469;42.720;23.252;2023-02-22T05:13:29;94862.75;;;4.38;100.00
20620;BME280;10469;42.720;23.252;2023-02-22T05:15:55;94855.97;;;4.28;100.00
20620;BME280;10469;42.720;23.252;2023-02-22T05:18:20;94868.50;;;4.41;100.00
20620;BME280;10469;42.720;23.252;2023-02-22T05:20:46;94871.16;;;4.41;100.00
20620;BME280;10469;42.720;23.252;2023-02-22T05:23:11;94874.53;;;4.22;100.00
20620;BME280;10469;42.720;23.252;2023-02-22T05:25:37;94874.34;;;4.23;100.00
20620;BME280;10469;42.720;23.252;2023-02-22T05:28:07;94870.34;;;4.41;100.00
20620;BME280;10469;42.720;23.252;2023-02-22T05:30:35;94866.94;;;4.73;100.00
20620;BME280;10469;42.720;23.252;2023-02-22T05:33:04;94883.75;;;5.00;100.00
20620;BME280;10469;42.720;23.252;2023-02-22T05:35:30;94870.50;;;5.93;100.00
20620;BME280;10469;42.720;23.252;2023-02-22T05:37:56;94860.22;;;7.32;100.00
20620;BME280;10469;42.720;23.252;2023-02-22T05:40:24;94871.19;;;9.02;99.02
20620;BME280;10469;42.720;23.252;2023-02-22T05:42:51;94860.81;;;9.89;88.34
20620;BME280;10469;42.720;23.252;2023-02-22T05:45:18;94872.38;;;10.25;82.69
20620;BME280;10469;42.720;23.252;2023-02-22T05:47:45;94876.22;;;11.38;77.84
20620;BME280;10469;42.720;23.252;2023-02-22T05:50:12;94862.16;;;14.01;66.63
20620;BME280;10469;42.720;23.252;2023-02-22T05:52:38;94863.91;;;14.17;63.24
20620;BME280;10469;42.720;23.252;2023-02-22T05:55:05;94871.22;;;13.90;57.43
20620;BME280;10469;42.720;23.252;2023-02-22T05:57:31;94875.84;;;13.35;62.41
20620;BME280;10469;42.720;23.252;2023-02-22T05:59:56;94872.97;;;12.54;64.66
20620;BME280;10469;42.720;23.252;2023-02-22T06:02:21;94891.50;;;12.72;62.15
20620;BME280;10469;42.720;23.252;2023-02-22T06:04:47;94877.56;;;16.14;54.05
20620;BME280;10469;42.720;23.252;2023-02-22T06:07:13;94887.50;;;13.41;56.14
20620;BME280;10469;42.720;23.252;2023-02-22T06:09:39;94893.19;;;12.57;60.28
20620;BME280;10469;42.720;23.252;2023-02-22T06:12:05;94882.66;;;13.70;59.01
20620;BME280;10469;42.720;23.252;2023-02-22T06:14:30;94889.50;;;14.52;55.98
20620;BME280;10469;42.720;23.252;2023-02-22T06:16:57;94880.78;;;16.72;50.33
20620;BME280;10469;42.720;23.252;2023-02-22T06:19:23;94871.59;;;17.83;44.08
20620;BME280;10469;42.720;23.252;2023-02-22T06:21:50;94885.41;;;17.37;44.46
20620;BME280;10469;42.720;23.252;2023-02-22T06:24:16;94891.44;;;12.67;52.80
20620;BME280;10469;42.720;23.252;2023-02-22T06:26:42;94886.06;;;13.11;53.65
20620;BME280;10469;42.720;23.252;2023-02-22T06:29:07;94878.41;;;15.89;49.68
20620;BME280;10469;42.720;23.252;2023-02-22T06:31:33;94876.78;;;14.95;48.09
20620;BME280;10469;42.720;23.252;2023-02-22T06:34:00;94876.75;;;16.29;47.22
20620;BME280;10469;42.720;23.252;2023-02-22T06:36:25;94867.25;;;16.72;47.33
20620;BME280;10469;42.720;23.252;2023-02-22T06:38:50;94878.88;;;16.52;45.74
20620;BME280;10469;42.720;23.252;2023-02-22T06:41:16;94870.69;;;13.88;52.14
20620;BME280;10469;42.720;23.252;2023-02-22T06:43:41;94892.50;;;17.27;46.71
20620;BME280;10469;42.720;23.252;2023-02-22T06:46:11;94889.91;;;16.92;44.63
20620;BME280;10469;42.720;23.252;2023-02-22T06:48:37;94897.91;;;14.55;49.08
20620;BME280;10469;42.720;23.252;2023-02-22T06:51:07;94891.06;;;16.40;47.40
20620;BME280;10469;42.720;23.252;2023-02-22T06:53:33;94890.91;;;15.22;47.94
20620;BME280;10469;42.720;23.252;2023-02-22T06:55:59;94874.22;;;17.98;44.80
20620;BME280;10469;42.720;23.252;2023-02-22T06:58:26;94882.69;;;17.42;42.51
20620;BME280;10469;42.720;23.252;2023-02-22T07:00:52;94897.69;;;15.20;47.11
20620;BME280;10469;42.720;23.252;2023-02-22T07:03:17;94886.91;;;15.30;49.00
20620;BME280;10469;42.720;23.252;2023-02-22T07:05:43;94877.78;;;14.36;52.14
20620;BME280;10469;42.720;23.252;2023-02-22T07:08:09;94885.69;;;16.04;47.38
20620;BME280;10469;42.720;23.252;2023-02-22T07:10:36;94890.00;;;15.69;48.08
20620;BME280;10469;42.720;23.252;2023-02-22T07:13:02;94868.28;;;15.34;48.92
20620;BME280;10469;42.720;23.252;2023-02-22T07:15:30;94896.22;;;16.00;48.41
20620;BME280;10469;42.720;23.252;2023-02-22T07:17:57;94885.38;;;16.51;47.07
20620;BME280;10469;42.720;23.252;2023-02-22T07:20:24;94884.81;;;14.00;50.23
20620;BME280;10469;42.720;23.252;2023-02-22T07:22:50;94885.13;;;16.43;46.37
20620;BME280;10469;42.720;23.252;2023-02-22T07:25:16;94889.19;;;15.69;50.26
20620;BME280;10469;42.720;23.252;2023-02-22T07:27:42;94882.97;;;14.90;48.66
20620;BME280;10469;42.720;23.252;2023-02-22T07:30:19;94882.22;;;15.10;48.15
20620;BME280;10469;42.720;23.252;2023-02-22T07:32:49;94874.47;;;15.29;50.22
20620;BME280;10469;42.720;23.252;2023-02-22T07:35:26;94872.91;;;17.46;45.31
20620;BME280;10469;42.720;23.252;2023-02-22T07:37:52;94865.94;;;18.76;42.96
20620;BME280;10469;42.720;23.252;2023-02-22T07:40:18;94861.78;;;15.40;45.89
20620;BME280;10469;42.720;23.252;2023-02-22T07:45:15;94871.19;;;17.60;45.12
20620;BME280;10469;42.720;23.252;2023-02-22T07:47:41;94870.91;;;18.64;42.51
20620;BME280;10469;42.720;23.252;2023-02-22T07:50:06;94867.22;;;16.67;44.91
20620;BME280;10469;42.720;23.252;2023-02-22T07:52:32;94880.97;;;15.38;46.37
20620;BME280;10469;42.720;23.252;2023-02-22T07:54:57;94863.38;;;17.53;43.75
20620;BME280;10469;42.720;23.252;2023-02-22T07:57:22;94863.69;;;18.84;42.51
20620;BME280;10469;42.720;23.252;2023-02-22T07:59:48;94858.66;;;20.79;39.89
20620;BME280;10469;42.720;23.252;2023-02-22T08:02:15;94868.19;;;19.17;41.25
20620;BME280;10469;42.720;23.252;2023-02-22T08:04:41;94856.13;;;17.88;41.92
20620;BME280;10469;42.720;23.252;2023-02-22T08:07:06;94850.25;;;18.39;41.31
20620;BME280;10469;42.720;23.252;2023-02-22T08:09:32;94849.47;;;18.63;41.85
20620;BME280;10469;42.720;23.252;2023-02-22T08:11:57;94841.69;;;20.36;38.99
20620;BME280;10469;42.720;23.252;2023-02-22T08:14:22;94858.88;;;21.24;37.37
20620;BME280;10469;42.720;23.252;2023-02-22T08:16:48;94856.03;;;21.02;37.03
20620;BME280;10469;42.720;23.252;2023-02-22T08:19:13;94847.34;;;20.40;37.79
20620;BME280;10469;42.720;23.252;2023-02-22T08:21:39;94854.50;;;20.36;38.11
20620;BME280;10469;42.720;23.252;2023-02-22T08:24:04;94856.91;;;20.37;37.47
20620;BME280;10469;42.720;23.252;2023-02-22T08:26:30;94850.19;;;20.16;38.36
20620;BME280;10469;42.720;23.252;2023-02-22T08:28:55;94844.44;;;20.83;37.66
20620;BME280;10469;42.720;23.252;2023-02-22T08:31:21;94847.63;;;18.29;40.72
20620;BME280;10469;42.720;23.252;2023-02-22T08:33:47;94844.06;;;17.99;40.98
20620;BME280;10469;42.720;23.252;2023-02-22T08:36:13;94847.56;;;21.17;38.11
20620;BME280;10469;42.720;23.252;2023-02-22T08:38:39;94837.97;;;21.84;35.95
20620;BME280;10469;42.720;23.252;2023-02-22T08:41:05;94826.88;;;21.16;36.21
20620;BME280;10469;42.720;23.252;2023-02-22T08:43:31;94825.00;;;21.53;36.13
20620;BME280;10469;42.720;23.252;2023-02-22T08:45:56;94842.94;;;21.82;35.16
20620;BME280;10469;42.720;23.252;2023-02-22T08:48:22;94844.53;;;20.77;37.93
20620;BME280;10469;42.720;23.252;2023-02-22T08:50:48;94828.59;;;22.12;35.65
20620;BME280;10469;42.720;23.252;2023-02-22T08:53:15;94840.00;;;21.00;36.49
20620;BME280;10469;42.720;23.252;2023-02-22T08:55:41;94833.63;;;20.77;36.57
20620;BME280;10469;42.720;23.252;2023-02-22T08:58:07;94836.03;;;21.48;35.91
20620;BME280;10469;42.720;23.252;2023-02-22T09:00:37;94838.28;;;21.32;36.07
20620;BME280;10469;42.720;23.252;2023-02-22T09:03:06;94833.63;;;21.83;35.37
20620;BME280;10469;42.720;23.252;2023-02-22T09:05:32;94826.66;;;23.54;33.42
20620;BME280;10469;42.720;23.252;2023-02-22T09:07:59;94838.00;;;21.34;36.50
20620;BME280;10469;42.720;23.252;2023-02-22T09:10:27;94832.34;;;22.78;35.46
20620;BME280;10469;42.720;23.252;2023-02-22T09:12:55;94831.78;;;20.59;37.71
20620;BME280;10469;42.720;23.252;2023-02-22T09:15:22;94827.63;;;20.15;38.51
20620;BME280;10469;42.720;23.252;2023-02-22T09:17:48;94818.25;;;22.32;36.28
20620;BME280;10469;42.720;23.252;2023-02-22T09:20:17;94813.13;;;22.30;36.72
20620;BME280;10469;42.720;23.252;2023-02-22T09:22:47;94823.31;;;21.02;38.11
20620;BME280;10469;42.720;23.252;2023-02-22T09:25:13;94823.19;;;20.19;39.40
20620;BME280;10469;42.720;23.252;2023-02-22T09:27:39;94828.03;;;19.52;40.70
20620;BME280;10469;42.720;23.252;2023-02-22T09:30:05;94814.13;;;21.25;39.33
20620;BME280;10469;42.720;23.252;2023-02-22T09:32:35;94814.50;;;21.60;38.45
20620;BME280;10469;42.720;23.252;2023-02-22T09:35:01;94811.84;;;21.91;37.55
20620;BME280;10469;42.720;23.252;2023-02-22T09:37:26;94802.28;;;22.78;36.47
20620;BME280;10469;42.720;23.252;2023-02-22T09:39:51;94801.56;;;22.33;36.95
20620;BME280;10469;42.720;23.252;2023-02-22T09:42:42;94807.97;;;21.47;37.54
20620;BME280;10469;42.720;23.252;2023-02-22T09:45:38;94810.47;;;19.82;39.71
20620;BME280;10469;42.720;23.252;2023-02-22T09:48:06;94805.50;;;21.60;37.79
20620;BME280;10469;42.720;23.252;2023-02-22T09:50:38;94799.69;;;21.39;38.09
20620;BME280;10469;42.720;23.252;2023-02-22T09:55:58;94810.88;;;21.23;38.01
20620;BME280;10469;42.720;23.252;2023-02-22T09:58:38;94798.59;;;21.12;38.05
20620;BME280;10469;42.720;23.252;2023-02-22T10:01:17;94787.75;;;23.66;36.69
20620;BME280;10469;42.720;23.252;2023-02-22T10:06:28;94783.22;;;22.56;35.35
20620;BME280;10469;42.720;23.252;2023-02-22T10:08:57;94779.72;;;21.88;37.11
20620;BME280;10469;42.720;23.252;2023-02-22T10:27:28;94746.06;;;24.51;32.99
20620;BME280;10469;42.720;23.252;2023-02-22T10:32:42;94737.94;;;25.10;33.50
20620;BME280;10469;42.720;23.252;2023-02-22T10:35:19;94729.56;;;23.35;34.25
20620;BME280;10469;42.720;23.252;2023-02-22T10:37:45;94733.63;;;23.72;33.90
20620;BME280;10469;42.720;23.252;2023-02-22T10:40:19;94716.81;;;24.17;32.89
20620;BME280;10469;42.720;23.252;2023-02-22T10:42:48;94715.09;;;23.86;33.95
20620;BME280;10469;42.720;23.252;2023-02-22T10:45:23;94724.91;;;23.78;33.40
20620;BME280;10469;42.720;23.252;2023-02-22T10:47:50;94705.47;;;21.77;35.82
20620;BME280;10469;42.720;23.252;2023-02-22T10:50:19;94702.94;;;24.13;33.86
20620;BME280;10469;42.720;23.252;2023-02-22T10:52:46;94685.75;;;25.94;31.01
20620;BME280;10469;42.720;23.252;2023-02-22T10:55:13;94700.84;;;24.95;32.25
20620;BME280;10469;42.720;23.252;2023-02-22T10:57:41;94691.31;;;22.77;33.45
20620;BME280;10469;42.720;23.252;2023-02-22T11:00:28;94688.44;;;22.83;34.03
20620;BME280;10469;42.720;23.252;2023-02-22T11:03:03;94684.66;;;21.59;34.97
20620;BME280;10469;42.720;23.252;2023-02-22T11:05:37;94691.09;;;23.22;33.64
20620;BME280;10469;42.720;23.252;2023-02-22T11:10:46;94679.22;;;22.61;33.54
20620;BME280;10469;42.720;23.252;2023-02-22T11:15:53;94672.44;;;23.16;32.20
20620;BME280;10469;42.720;23.252;2023-02-22T11:18:24;94669.66;;;21.12;33.52
20620;BME280;10469;42.720;23.252;2023-02-22T11:21:05;94671.59;;;22.41;32.54
20620;BME280;10469;42.720;23.252;2023-02-22T11:23:33;94663.91;;;21.36;33.35
20620;BME280;10469;42.720;23.252;2023-02-22T11:26:06;94650.28;;;21.58;33.14
20620;BME280;10469;42.720;23.252;2023-02-22T11:28:33;94659.41;;;23.13;33.04
20620;BME280;10469;42.720;23.252;2023-02-22T11:31:10;94657.00;;;25.37;30.09
20620;BME280;10469;42.720;23.252;2023-02-22T11:33:37;94652.66;;;23.71;31.03
20620;BME280;10469;42.720;23.252;2023-02-22T11:36:04;94656.66;;;23.47;31.04
20620;BME280;10469;42.720;23.252;2023-02-22T11:38:35;94630.97;;;22.48;32.25
20620;BME280;10469;42.720;23.252;2023-02-22T11:41:19;94645.22;;;23.63;31.63
20620;BME280;10469;42.720;23.252;2023-02-22T11:43:50;94646.66;;;21.94;32.54
20620;BME280;10469;42.720;23.252;2023-02-22T11:46:20;94654.97;;;22.20;31.48
20620;BME280;10469;42.720;23.252;2023-02-22T11:48:58;94648.34;;;21.81;32.82
20620;BME280;10469;42.720;23.252;2023-02-22T12:00:18;94618.09;;;20.65;33.80
20620;BME280;10469;42.720;23.252;2023-02-22T12:08:47;94626.88;;;20.07;34.63
20620;BME280;10469;42.720;23.252;2023-02-22T12:11:37;94624.66;;;21.68;32.79
20620;BME280;10469;42.720;23.252;2023-02-22T12:17:46;94615.84;;;20.67;33.63
20620;BME280;10469;42.720;23.252;2023-02-22T12:20:30;94608.81;;;20.52;33.98
20620;BME280;10469;42.720;23.252;2023-02-22T12:26:09;94606.38;;;22.08;31.87
20620;BME280;10469;42.720;23.252;2023-02-22T12:28:40;94595.66;;;21.04;33.48
20620;BME280;10469;42.720;23.252;2023-02-22T12:33:47;94582.84;;;22.21;31.65
20620;BME280;10469;42.720;23.252;2023-02-22T12:36:18;94595.72;;;21.13;33.59
20620;BME280;10469;42.720;23.252;2023-02-22T12:38:51;94590.44;;;20.58;33.33
20620;BME280;10469;42.720;23.252;2023-02-22T12:41:30;94597.94;;;21.56;33.81
20620;BME280;10469;42.720;23.252;2023-02-22T12:44:07;94589.94;;;21.15;33.65
20620;BME280;10469;42.720;23.252;2023-02-22T12:46:40;94582.19;;;21.53;33.93
20620;BME280;10469;42.720;23.252;2023-02-22T13:02:57;94583.69;;;19.59;35.69
20620;BME280;10469;42.720;23.252;2023-02-22T13:05:23;94583.03;;;19.02;35.81
20620;BME280;10469;42.720;23.252;2023-02-22T13:29:14;94559.13;;;17.86;39.04
20620;BME280;10469;42.720;23.252;2023-02-22T13:37:13;94569.28;;;17.70;39.47
20620;BME280;10469;42.720;23.252;2023-02-22T13:45:45;94572.00;;;17.46;40.29
20620;BME280;10469;42.720;23.252;2023-02-22T13:48:31;94576.06;;;17.19;40.31
20620;BME280;10469;42.720;23.252;2023-02-22T13:51:30;94566.88;;;17.44;40.72
20620;BME280;10469;42.720;23.252;2023-02-22T13:54:01;94574.09;;;17.54;40.79
20620;BME280;10469;42.720;23.252;2023-02-22T13:56:30;94565.03;;;17.64;40.88
20620;BME280;10469;42.720;23.252;2023-02-22T13:58:58;94557.97;;;17.39;41.04
20620;BME280;10469;42.720;23.252;2023-02-22T14:01:43;94565.09;;;17.59;41.21
20620;BME280;10469;42.720;23.252;2023-02-22T14:06:59;94556.41;;;17.62;40.03
20620;BME280;10469;42.720;23.252;2023-02-22T14:09:49;94565.97;;;17.78;39.78
20620;BME280;10469;42.720;23.252;2023-02-22T14:17:38;94561.38;;;17.25;39.46
20620;BME280;10469;42.720;23.252;2023-02-22T14:20:19;94567.16;;;17.14;42.23
20620;BME280;10469;42.720;23.252;2023-02-22T14:22:48;94575.13;;;17.58;42.35
20620;BME280;10469;42.720;23.252;2023-02-22T14:25:39;94574.41;;;17.47;42.74
20620;BME280;10469;42.720;23.252;2023-02-22T14:28:07;94572.19;;;17.54;42.81
20620;BME280;10469;42.720;23.252;2023-02-22T14:30:36;94575.09;;;17.05;42.53
20620;BME280;10469;42.720;23.252;2023-02-22T14:36:06;94562.34;;;16.71;41.87
20620;BME280;10469;42.720;23.252;2023-02-22T14:38:31;94569.66;;;16.76;42.06
20620;BME280;10469;42.720;23.252;2023-02-22T14:40:58;94573.03;;;16.92;42.33
20620;BME280;10469;42.720;23.252;2023-02-22T14:43:25;94569.22;;;16.98;42.13
20620;BME280;10469;42.720;23.252;2023-02-22T14:45:52;94553.06;;;16.83;41.89
20620;BME280;10469;42.720;23.252;2023-02-22T14:48:34;94564.84;;;17.02;42.38
20620;BME280;10469;42.720;23.252;2023-02-22T14:51:14;94565.59;;;16.73;43.27
20620;BME280;10469;42.720;23.252;2023-02-22T14:53:54;94556.88;;;16.82;43.96
20620;BME280;10469;42.720;23.252;2023-02-22T14:56:27;94559.94;;;16.65;45.43
20620;BME280;10469;42.720;23.252;2023-02-22T15:02:12;94557.41;;;16.39;47.40
20620;BME280;10469;42.720;23.252;2023-02-22T15:04:38;94559.88;;;16.41;48.01
20620;BME280;10469;42.720;23.252;2023-02-22T15:07:20;94555.81;;;16.38;48.35
20620;BME280;10469;42.720;23.252;2023-02-22T15:09:46;94565.75;;;16.48;48.64
20620;BME280;10469;42.720;23.252;2023-02-22T15:12:23;94568.19;;;16.49;49.04
20620;BME280;10469;42.720;23.252;2023-02-22T15:15:09;94565.84;;;16.38;49.65
20620;BME280;10469;42.720;23.252;2023-02-22T15:17:38;94569.41;;;16.23;49.99
20620;BME280;10469;42.720;23.252;2023-02-22T15:20:08;94572.69;;;16.20;50.68
20620;BME280;10469;42.720;23.252;2023-02-22T15:22:36;94577.06;;;16.11;51.23
20620;BME280;10469;42.720;23.252;2023-02-22T15:25:04;94573.88;;;15.98;51.70
20620;BME280;10469;42.720;23.252;2023-02-22T15:27:30;94572.78;;;15.99;51.88
20620;BME280;10469;42.720;23.252;2023-02-22T15:30:04;94578.50;;;15.93;52.54
20620;BME280;10469;42.720;23.252;2023-02-22T15:32:33;94575.00;;;15.87;52.93